sensor_id;sensor_type;location;lat;lon;timestamp;P1;durP1;ratioP1;P2;durP2;ratioP2
64052;SDS011;50299;49.524;8.536;2023-05-20T00:01:37;3.35;;;3.05;;
64052;SDS011;50299;49.524;8.536;2023-05-20T00:04:04;4.45;;;3.05;;
64052;SDS011;50299;49.524;8.536;2023-05-20T00:06:31;3.10;;;2.85;;
64052;SDS011;50299;49.524;8.536;2023-05-20T00:08:59;4.32;;;2.95;;
64052;SDS011;50299;49.524;8.536;2023-05-20T00:11:25;4.32;;;2.90;;
64052;SDS011;50299;49.524;8.536;2023-05-20T00:13:52;3.30;;;3.00;;
64052;SDS011;50299;49.524;8.536;2023-05-20T00:16:19;3.65;;;3.28;;
64052;SDS011;50299;49.524;8.536;2023-05-20T00:18:46;4.70;;;3.63;;
64052;SDS011;50299;49.524;8.536;2023-05-20T00:21:12;3.78;;;3.03;;
64052;SDS011;50299;49.524;8.536;2023-05-20T00:23:39;3.42;;;2.97;;
64052;SDS011;50299;49.524;8.536;2023-05-20T00:26:06;4.00;;;3.08;;
64052;SDS011;50299;49.524;8.536;2023-05-20T00:28:32;4.68;;;3.70;;
64052;SDS011;50299;49.524;8.536;2023-05-20T00:31:02;3.92;;;3.22;;
64052;SDS011;50299;49.524;8.536;2023-05-20T00:33:29;3.38;;;3.00;;
64052;SDS011;50299;49.524;8.536;2023-05-20T00:35:56;4.85;;;3.30;;
64052;SDS011;50299;49.524;8.536;2023-05-20T00:38:22;4.35;;;3.50;;
64052;SDS011;50299;49.524;8.536;2023-05-20T00:40:48;3.78;;;3.47;;
64052;SDS011;50299;49.524;8.536;2023-05-20T00:43:15;6.55;;;3.40;;
64052;SDS011;50299;49.524;8.536;2023-05-20T00:45:42;3.80;;;3.33;;
64052;SDS011;50299;49.524;8.536;2023-05-20T00:48:08;3.55;;;3.25;;
64052;SDS011;50299;49.524;8.536;2023-05-20T00:50:36;3.88;;;3.30;;
64052;SDS011;50299;49.524;8.536;2023-05-20T00:53:02;4.38;;;3.97;;
64052;SDS011;50299;49.524;8.536;2023-05-20T00:55:30;3.53;;;3.22;;
64052;SDS011;50299;49.524;8.536;2023-05-20T00:57:57;3.63;;;3.05;;
64052;SDS011;50299;49.524;8.536;2023-05-20T01:00:23;6.07;;;3.80;;
64052;SDS011;50299;49.524;8.536;2023-05-20T01:02:50;3.40;;;3.10;;
64052;SDS011;50299;49.524;8.536;2023-05-20T01:05:19;3.92;;;3.28;;
64052;SDS011;50299;49.524;8.536;2023-05-20T01:07:49;3.92;;;3.13;;
64052;SDS011;50299;49.524;8.536;2023-05-20T01:10:18;3.92;;;2.92;;
64052;SDS011;50299;49.524;8.536;2023-05-20T01:12:48;3.30;;;3.00;;
64052;SDS011;50299;49.524;8.536;2023-05-20T01:15:20;4.35;;;3.78;;
64052;SDS011;50299;49.524;8.536;2023-05-20T01:17:50;3.08;;;2.85;;
64052;SDS011;50299;49.524;8.536;2023-05-20T01:20:19;4.65;;;3.42;;
64052;SDS011;50299;49.524;8.536;2023-05-20T01:22:53;4.05;;;3.58;;
64052;SDS011;50299;49.524;8.536;2023-05-20T01:25:21;3.15;;;2.90;;
64052;SDS011;50299;49.524;8.536;2023-05-20T01:27:47;3.03;;;2.78;;
64052;SDS011;50299;49.524;8.536;2023-05-20T01:30:16;3.55;;;3.08;;
64052;SDS011;50299;49.524;8.536;2023-05-20T01:32:45;4.10;;;3.60;;
64052;SDS011;50299;49.524;8.536;2023-05-20T01:35:16;4.35;;;3.20;;
64052;SDS011;50299;49.524;8.536;2023-05-20T01:37:45;4.78;;;3.70;;
64052;SDS011;50299;49.524;8.536;2023-05-20T01:40:14;3.95;;;3.58;;
64052;SDS011;50299;49.524;8.536;2023-05-20T01:42:42;5.22;;;3.85;;
64052;SDS011;50299;49.524;8.536;2023-05-20T01:45:11;4.00;;;3.70;;
64052;SDS011;50299;49.524;8.536;2023-05-20T01:47:37;3.53;;;3.22;;
64052;SDS011;50299;49.524;8.536;2023-05-20T01:50:04;4.43;;;3.40;;
64052;SDS011;50299;49.524;8.536;2023-05-20T01:52:31;3.65;;;3.35;;
64052;SDS011;50299;49.524;8.536;2023-05-20T01:54:58;4.78;;;4.00;;
64052;SDS011;50299;49.524;8.536;2023-05-20T01:57:25;4.35;;;3.75;;
64052;SDS011;50299;49.524;8.536;2023-05-20T01:59:51;4.05;;;3.65;;
64052;SDS011;50299;49.524;8.536;2023-05-20T02:02:19;5.53;;;3.92;;
64052;SDS011;50299;49.524;8.536;2023-05-20T02:04:47;4.95;;;4.03;;
64052;SDS011;50299;49.524;8.536;2023-05-20T02:07:17;4.32;;;3.92;;
64052;SDS011;50299;49.524;8.536;2023-05-20T02:09:44;4.15;;;3.75;;
64052;SDS011;50299;49.524;8.536;2023-05-20T02:12:11;4.47;;;4.07;;
64052;SDS011;50299;49.524;8.536;2023-05-20T02:14:42;6.45;;;3.92;;
64052;SDS011;50299;49.524;8.536;2023-05-20T02:17:10;4.18;;;3.85;;
64052;SDS011;50299;49.524;8.536;2023-05-20T02:19:38;6.43;;;3.67;;
64052;SDS011;50299;49.524;8.536;2023-05-20T02:22:05;4.95;;;3.67;;
64052;SDS011;50299;49.524;8.536;2023-05-20T02:24:31;5.78;;;4.22;;
64052;SDS011;50299;49.524;8.536;2023-05-20T02:26:58;4.32;;;3.60;;
64052;SDS011;50299;49.524;8.536;2023-05-20T02:29:25;3.80;;;3.45;;
64052;SDS011;50299;49.524;8.536;2023-05-20T02:31:51;4.20;;;3.80;;
64052;SDS011;50299;49.524;8.536;2023-05-20T02:34:19;6.95;;;4.22;;
64052;SDS011;50299;49.524;8.536;2023-05-20T02:36:46;4.75;;;4.20;;
64052;SDS011;50299;49.524;8.536;2023-05-20T02:39:13;5.82;;;4.00;;
64052;SDS011;50299;49.524;8.536;2023-05-20T02:41:39;5.95;;;3.55;;
64052;SDS011;50299;49.524;8.536;2023-05-20T02:44:07;4.05;;;3.65;;
64052;SDS011;50299;49.524;8.536;2023-05-20T02:46:33;4.32;;;3.83;;
64052;SDS011;50299;49.524;8.536;2023-05-20T02:49:00;4.65;;;4.13;;
64052;SDS011;50299;49.524;8.536;2023-05-20T02:51:26;4.80;;;3.95;;
64052;SDS011;50299;49.524;8.536;2023-05-20T02:53:53;4.15;;;3.85;;
64052;SDS011;50299;49.524;8.536;2023-05-20T02:56:19;4.80;;;3.67;;
64052;SDS011;50299;49.524;8.536;2023-05-20T02:58:46;5.10;;;4.22;;
64052;SDS011;50299;49.524;8.536;2023-05-20T03:01:13;4.45;;;3.95;;
64052;SDS011;50299;49.524;8.536;2023-05-20T03:03:40;4.30;;;3.90;;
64052;SDS011;50299;49.524;8.536;2023-05-20T03:06:07;5.45;;;3.97;;
64052;SDS011;50299;49.524;8.536;2023-05-20T03:08:34;5.15;;;4.28;;
64052;SDS011;50299;49.524;8.536;2023-05-20T03:11:04;4.28;;;3.85;;
64052;SDS011;50299;49.524;8.536;2023-05-20T03:13:31;4.57;;;4.20;;
64052;SDS011;50299;49.524;8.536;2023-05-20T03:16:05;3.97;;;3.67;;
64052;SDS011;50299;49.524;8.536;2023-05-20T03:18:32;6.80;;;4.43;;
64052;SDS011;50299;49.524;8.536;2023-05-20T03:20:59;5.40;;;3.90;;
64052;SDS011;50299;49.524;8.536;2023-05-20T03:23:28;4.65;;;4.07;;
64052;SDS011;50299;49.524;8.536;2023-05-20T03:25:55;5.47;;;4.22;;
64052;SDS011;50299;49.524;8.536;2023-05-20T03:28:21;4.75;;;4.35;;
64052;SDS011;50299;49.524;8.536;2023-05-20T03:30:50;4.40;;;4.00;;
64052;SDS011;50299;49.524;8.536;2023-05-20T03:33:21;4.38;;;3.97;;
64052;SDS011;50299;49.524;8.536;2023-05-20T03:35:51;3.83;;;3.55;;
64052;SDS011;50299;49.524;8.536;2023-05-20T03:38:18;4.60;;;4.07;;
64052;SDS011;50299;49.524;8.536;2023-05-20T03:40:44;4.38;;;3.97;;
64052;SDS011;50299;49.524;8.536;2023-05-20T03:43:10;4.35;;;3.95;;
64052;SDS011;50299;49.524;8.536;2023-05-20T03:48:06;4.18;;;3.78;;
64052;SDS011;50299;49.524;8.536;2023-05-20T03:50:33;4.25;;;3.85;;
64052;SDS011;50299;49.524;8.536;2023-05-20T03:52:59;4.25;;;3.95;;
64052;SDS011;50299;49.524;8.536;2023-05-20T03:55:28;4.35;;;3.97;;
64052;SDS011;50299;49.524;8.536;2023-05-20T03:57:58;4.65;;;3.70;;
64052;SDS011;50299;49.524;8.536;2023-05-20T04:00:28;5.65;;;5.28;;
64052;SDS011;50299;49.524;8.536;2023-05-20T04:02:57;4.43;;;4.03;;
64052;SDS011;50299;49.524;8.536;2023-05-20T04:05:24;4.65;;;4.15;;
64052;SDS011;50299;49.524;8.536;2023-05-20T04:07:50;4.47;;;4.07;;
64052;SDS011;50299;49.524;8.536;2023-05-20T04:10:20;5.28;;;4.45;;
64052;SDS011;50299;49.524;8.536;2023-05-20T04:12:47;4.40;;;4.00;;
64052;SDS011;50299;49.524;8.536;2023-05-20T04:15:13;4.25;;;3.90;;
64052;SDS011;50299;49.524;8.536;2023-05-20T04:17:44;7.00;;;4.88;;
64052;SDS011;50299;49.524;8.536;2023-05-20T04:20:13;4.80;;;3.88;;
64052;SDS011;50299;49.524;8.536;2023-05-20T04:22:40;4.45;;;4.05;;
64052;SDS011;50299;49.524;8.536;2023-05-20T04:25:06;4.70;;;3.65;;
64052;SDS011;50299;49.524;8.536;2023-05-20T04:27:36;4.55;;;4.10;;
64052;SDS011;50299;49.524;8.536;2023-05-20T04:30:03;4.35;;;3.95;;
64052;SDS011;50299;49.524;8.536;2023-05-20T04:32:32;6.43;;;3.83;;
64052;SDS011;50299;49.524;8.536;2023-05-20T04:35:02;3.70;;;3.40;;
64052;SDS011;50299;49.524;8.536;2023-05-20T04:37:36;4.72;;;3.92;;
64052;SDS011;50299;49.524;8.536;2023-05-20T04:40:07;4.28;;;3.92;;
64052;SDS011;50299;49.524;8.536;2023-05-20T04:42:35;4.95;;;4.45;;
64052;SDS011;50299;49.524;8.536;2023-05-20T04:45:03;3.88;;;3.42;;
64052;SDS011;50299;49.524;8.536;2023-05-20T04:47:31;3.92;;;3.63;;
64052;SDS011;50299;49.524;8.536;2023-05-20T04:50:09;4.93;;;4.18;;
64052;SDS011;50299;49.524;8.536;2023-05-20T04:52:37;4.38;;;3.78;;
64052;SDS011;50299;49.524;8.536;2023-05-20T04:55:11;4.90;;;3.85;;
64052;SDS011;50299;49.524;8.536;2023-05-20T04:57:39;3.72;;;3.42;;
64052;SDS011;50299;49.524;8.536;2023-05-20T05:00:08;4.22;;;3.83;;
64052;SDS011;50299;49.524;8.536;2023-05-20T05:02:36;4.35;;;3.85;;
64052;SDS011;50299;49.524;8.536;2023-05-20T05:05:03;4.68;;;4.00;;
64052;SDS011;50299;49.524;8.536;2023-05-20T05:07:30;8.30;;;4.32;;
64052;SDS011;50299;49.524;8.536;2023-05-20T05:09:57;5.40;;;4.32;;
64052;SDS011;50299;49.524;8.536;2023-05-20T05:12:23;4.32;;;3.90;;
64052;SDS011;50299;49.524;8.536;2023-05-20T05:14:50;5.95;;;4.97;;
64052;SDS011;50299;49.524;8.536;2023-05-20T05:17:16;5.03;;;4.10;;
64052;SDS011;50299;49.524;8.536;2023-05-20T05:19:43;4.65;;;4.18;;
64052;SDS011;50299;49.524;8.536;2023-05-20T05:22:17;4.55;;;3.95;;
64052;SDS011;50299;49.524;8.536;2023-05-20T05:24:43;4.28;;;3.83;;
64052;SDS011;50299;49.524;8.536;2023-05-20T05:27:10;4.18;;;3.78;;
64052;SDS011;50299;49.524;8.536;2023-05-20T05:29:36;4.57;;;4.18;;
64052;SDS011;50299;49.524;8.536;2023-05-20T05:32:06;6.03;;;4.07;;
64052;SDS011;50299;49.524;8.536;2023-05-20T05:34:33;8.68;;;4.88;;
64052;SDS011;50299;49.524;8.536;2023-05-20T05:37:00;6.22;;;3.88;;
64052;SDS011;50299;49.524;8.536;2023-05-20T05:39:26;11.10;;;4.82;;
64052;SDS011;50299;49.524;8.536;2023-05-20T05:41:53;6.95;;;4.32;;
64052;SDS011;50299;49.524;8.536;2023-05-20T05:44:21;4.53;;;4.13;;
64052;SDS011;50299;49.524;8.536;2023-05-20T05:46:48;6.68;;;3.95;;
64052;SDS011;50299;49.524;8.536;2023-05-20T05:49:14;4.18;;;3.78;;
64052;SDS011;50299;49.524;8.536;2023-05-20T05:51:41;8.07;;;4.57;;
64052;SDS011;50299;49.524;8.536;2023-05-20T05:54:07;4.32;;;3.88;;
64052;SDS011;50299;49.524;8.536;2023-05-20T05:56:34;4.97;;;4.47;;
64052;SDS011;50299;49.524;8.536;2023-05-20T05:59:02;4.40;;;3.95;;
64052;SDS011;50299;49.524;8.536;2023-05-20T06:01:29;4.45;;;4.05;;
64052;SDS011;50299;49.524;8.536;2023-05-20T06:04:08;4.75;;;3.67;;
64052;SDS011;50299;49.524;8.536;2023-05-20T06:06:37;7.13;;;4.07;;
64052;SDS011;50299;49.524;8.536;2023-05-20T06:09:03;4.82;;;4.10;;
64052;SDS011;50299;49.524;8.536;2023-05-20T06:11:33;4.50;;;4.13;;
64052;SDS011;50299;49.524;8.536;2023-05-20T06:14:00;6.13;;;4.85;;
64052;SDS011;50299;49.524;8.536;2023-05-20T06:16:27;5.47;;;4.25;;
64052;SDS011;50299;49.524;8.536;2023-05-20T06:18:54;4.82;;;3.85;;
64052;SDS011;50299;49.524;8.536;2023-05-20T06:21:22;4.53;;;3.88;;
64052;SDS011;50299;49.524;8.536;2023-05-20T06:23:49;4.50;;;4.10;;
64052;SDS011;50299;49.524;8.536;2023-05-20T06:26:18;4.22;;;3.83;;
64052;SDS011;50299;49.524;8.536;2023-05-20T06:28:45;4.85;;;4.38;;
64052;SDS011;50299;49.524;8.536;2023-05-20T06:31:12;5.85;;;4.18;;
64052;SDS011;50299;49.524;8.536;2023-05-20T06:33:38;4.45;;;4.05;;
64052;SDS011;50299;49.524;8.536;2023-05-20T06:36:05;5.70;;;3.78;;
64052;SDS011;50299;49.524;8.536;2023-05-20T06:38:32;4.40;;;3.97;;
64052;SDS011;50299;49.524;8.536;2023-05-20T06:41:01;5.30;;;4.80;;
64052;SDS011;50299;49.524;8.536;2023-05-20T06:43:27;5.57;;;5.10;;
64052;SDS011;50299;49.524;8.536;2023-05-20T06:45:54;5.10;;;4.70;;
64052;SDS011;50299;49.524;8.536;2023-05-20T06:48:21;6.50;;;5.88;;
64052;SDS011;50299;49.524;8.536;2023-05-20T06:50:57;5.45;;;4.88;;
64052;SDS011;50299;49.524;8.536;2023-05-20T06:53:23;7.97;;;4.88;;
64052;SDS011;50299;49.524;8.536;2023-05-20T06:55:51;5.93;;;5.05;;
64052;SDS011;50299;49.524;8.536;2023-05-20T06:58:23;6.60;;;5.25;;
64052;SDS011;50299;49.524;8.536;2023-05-20T07:00:50;6.68;;;5.45;;
64052;SDS011;50299;49.524;8.536;2023-05-20T07:03:24;6.95;;;5.38;;
64052;SDS011;50299;49.524;8.536;2023-05-20T07:05:51;5.70;;;5.13;;
64052;SDS011;50299;49.524;8.536;2023-05-20T07:08:19;5.50;;;5.00;;
64052;SDS011;50299;49.524;8.536;2023-05-20T07:10:48;5.07;;;4.68;;
64052;SDS011;50299;49.524;8.536;2023-05-20T07:13:15;6.45;;;5.28;;
64052;SDS011;50299;49.524;8.536;2023-05-20T07:15:46;5.43;;;4.72;;
64052;SDS011;50299;49.524;8.536;2023-05-20T07:18:16;5.15;;;4.75;;
64052;SDS011;50299;49.524;8.536;2023-05-20T07:20:44;7.07;;;5.43;;
64052;SDS011;50299;49.524;8.536;2023-05-20T07:23:11;5.60;;;5.13;;
64052;SDS011;50299;49.524;8.536;2023-05-20T07:25:40;5.32;;;4.82;;
64052;SDS011;50299;49.524;8.536;2023-05-20T07:28:07;5.88;;;4.70;;
64052;SDS011;50299;49.524;8.536;2023-05-20T07:30:37;6.55;;;5.15;;
64052;SDS011;50299;49.524;8.536;2023-05-20T07:33:04;5.30;;;4.80;;
64052;SDS011;50299;49.524;8.536;2023-05-20T07:35:31;5.82;;;5.28;;
64052;SDS011;50299;49.524;8.536;2023-05-20T07:37:58;5.40;;;4.57;;
64052;SDS011;50299;49.524;8.536;2023-05-20T07:40:25;5.00;;;4.57;;
64052;SDS011;50299;49.524;8.536;2023-05-20T07:42:52;5.75;;;5.25;;
64052;SDS011;50299;49.524;8.536;2023-05-20T07:45:27;4.70;;;4.30;;
64052;SDS011;50299;49.524;8.536;2023-05-20T07:47:54;4.95;;;4.55;;
64052;SDS011;50299;49.524;8.536;2023-05-20T07:50:21;5.28;;;4.53;;
64052;SDS011;50299;49.524;8.536;2023-05-20T07:52:50;5.22;;;4.60;;
64052;SDS011;50299;49.524;8.536;2023-05-20T07:55:22;5.15;;;4.72;;
64052;SDS011;50299;49.524;8.536;2023-05-20T07:57:48;5.95;;;5.18;;
64052;SDS011;50299;49.524;8.536;2023-05-20T08:00:15;5.95;;;5.35;;
64052;SDS011;50299;49.524;8.536;2023-05-20T08:02:42;6.05;;;5.00;;
64052;SDS011;50299;49.524;8.536;2023-05-20T08:05:09;5.38;;;4.88;;
64052;SDS011;50299;49.524;8.536;2023-05-20T08:07:36;6.07;;;4.40;;
64052;SDS011;50299;49.524;8.536;2023-05-20T08:10:05;5.68;;;5.22;;
64052;SDS011;50299;49.524;8.536;2023-05-20T08:12:35;5.25;;;4.70;;
64052;SDS011;50299;49.524;8.536;2023-05-20T08:15:02;5.15;;;4.65;;
64052;SDS011;50299;49.524;8.536;2023-05-20T08:17:29;5.03;;;4.63;;
64052;SDS011;50299;49.524;8.536;2023-05-20T08:19:56;5.10;;;4.60;;
64052;SDS011;50299;49.524;8.536;2023-05-20T08:22:23;5.60;;;4.95;;
64052;SDS011;50299;49.524;8.536;2023-05-20T08:24:49;5.20;;;4.70;;
64052;SDS011;50299;49.524;8.536;2023-05-20T08:27:19;5.00;;;4.60;;
64052;SDS011;50299;49.524;8.536;2023-05-20T08:29:48;5.00;;;4.60;;
64052;SDS011;50299;49.524;8.536;2023-05-20T08:32:14;6.60;;;4.82;;
64052;SDS011;50299;49.524;8.536;2023-05-20T08:34:41;6.30;;;5.20;;
64052;SDS011;50299;49.524;8.536;2023-05-20T08:37:10;6.15;;;5.10;;
64052;SDS011;50299;49.524;8.536;2023-05-20T08:39:45;6.43;;;5.43;;
64052;SDS011;50299;49.524;8.536;2023-05-20T08:42:13;5.88;;;5.38;;
64052;SDS011;50299;49.524;8.536;2023-05-20T08:44:40;5.82;;;5.35;;
64052;SDS011;50299;49.524;8.536;2023-05-20T08:47:07;5.90;;;5.30;;
64052;SDS011;50299;49.524;8.536;2023-05-20T08:49:36;5.53;;;5.03;;
64052;SDS011;50299;49.524;8.536;2023-05-20T08:52:02;5.50;;;5.00;;
64052;SDS011;50299;49.524;8.536;2023-05-20T08:54:42;5.95;;;5.50;;
64052;SDS011;50299;49.524;8.536;2023-05-20T08:57:16;5.63;;;5.13;;
64052;SDS011;50299;49.524;8.536;2023-05-20T08:59:46;5.53;;;5.03;;
64052;SDS011;50299;49.524;8.536;2023-05-20T09:02:16;6.15;;;5.55;;
64052;SDS011;50299;49.524;8.536;2023-05-20T09:04:43;6.45;;;5.38;;
64052;SDS011;50299;49.524;8.536;2023-05-20T09:07:10;6.20;;;5.70;;
64052;SDS011;50299;49.524;8.536;2023-05-20T09:09:37;5.70;;;5.20;;
64052;SDS011;50299;49.524;8.536;2023-05-20T09:12:06;6.30;;;5.78;;
64052;SDS011;50299;49.524;8.536;2023-05-20T09:14:34;6.10;;;5.50;;
64052;SDS011;50299;49.524;8.536;2023-05-20T09:17:04;6.47;;;5.72;;
64052;SDS011;50299;49.524;8.536;2023-05-20T09:19:33;6.32;;;5.78;;
64052;SDS011;50299;49.524;8.536;2023-05-20T09:22:00;6.13;;;5.53;;
64052;SDS011;50299;49.524;8.536;2023-05-20T09:24:29;6.38;;;5.80;;
64052;SDS011;50299;49.524;8.536;2023-05-20T09:26:56;5.93;;;5.40;;
64052;SDS011;50299;49.524;8.536;2023-05-20T09:29:25;6.20;;;5.70;;
64052;SDS011;50299;49.524;8.536;2023-05-20T09:31:51;5.78;;;5.28;;
64052;SDS011;50299;49.524;8.536;2023-05-20T09:34:20;6.40;;;5.80;;
64052;SDS011;50299;49.524;8.536;2023-05-20T09:36:48;5.47;;;4.97;;
64052;SDS011;50299;49.524;8.536;2023-05-20T09:39:18;6.30;;;5.45;;
64052;SDS011;50299;49.524;8.536;2023-05-20T09:41:53;6.65;;;6.03;;
64052;SDS011;50299;49.524;8.536;2023-05-20T09:44:20;7.75;;;6.53;;
64052;SDS011;50299;49.524;8.536;2023-05-20T09:46:52;6.75;;;6.10;;
64052;SDS011;50299;49.524;8.536;2023-05-20T09:49:19;12.68;;;5.85;;
64052;SDS011;50299;49.524;8.536;2023-05-20T09:54:17;7.13;;;6.28;;
64052;SDS011;50299;49.524;8.536;2023-05-20T09:56:45;6.90;;;6.22;;
64052;SDS011;50299;49.524;8.536;2023-05-20T09:59:12;6.05;;;5.18;;
64052;SDS011;50299;49.524;8.536;2023-05-20T10:01:44;8.18;;;5.93;;
64052;SDS011;50299;49.524;8.536;2023-05-20T10:04:12;5.80;;;5.35;;
64052;SDS011;50299;49.524;8.536;2023-05-20T10:09:48;6.25;;;5.65;;
64052;SDS011;50299;49.524;8.536;2023-05-20T10:15:50;6.90;;;6.25;;
64052;SDS011;50299;49.524;8.536;2023-05-20T10:18:19;6.40;;;5.80;;
64052;SDS011;50299;49.524;8.536;2023-05-20T10:20:52;6.30;;;5.70;;
64052;SDS011;50299;49.524;8.536;2023-05-20T10:23:19;5.95;;;5.45;;
64052;SDS011;50299;49.524;8.536;2023-05-20T10:25:51;7.00;;;5.68;;
64052;SDS011;50299;49.524;8.536;2023-05-20T10:30:56;6.57;;;5.97;;
64052;SDS011;50299;49.524;8.536;2023-05-20T10:33:27;6.38;;;5.70;;
64052;SDS011;50299;49.524;8.536;2023-05-20T10:35:58;6.28;;;5.53;;
64052;SDS011;50299;49.524;8.536;2023-05-20T10:38:27;6.10;;;5.50;;
64052;SDS011;50299;49.524;8.536;2023-05-20T10:40:54;6.40;;;5.80;;
64052;SDS011;50299;49.524;8.536;2023-05-20T10:43:26;6.47;;;5.90;;
64052;SDS011;50299;49.524;8.536;2023-05-20T10:45:55;6.18;;;5.60;;
64052;SDS011;50299;49.524;8.536;2023-05-20T10:48:27;6.35;;;5.85;;
64052;SDS011;50299;49.524;8.536;2023-05-20T10:50:58;6.38;;;5.78;;
64052;SDS011;50299;49.524;8.536;2023-05-20T10:53:36;6.40;;;5.90;;
64052;SDS011;50299;49.524;8.536;2023-05-20T10:56:04;5.65;;;5.25;;
64052;SDS011;50299;49.524;8.536;2023-05-20T10:58:36;6.68;;;6.07;;
64052;SDS011;50299;49.524;8.536;2023-05-20T11:01:06;6.75;;;6.05;;
64052;SDS011;50299;49.524;8.536;2023-05-20T11:03:33;6.55;;;5.95;;
64052;SDS011;50299;49.524;8.536;2023-05-20T11:06:01;6.93;;;6.32;;
64052;SDS011;50299;49.524;8.536;2023-05-20T11:11:03;7.28;;;6.13;;
64052;SDS011;50299;49.524;8.536;2023-05-20T11:13:29;6.88;;;6.05;;
64052;SDS011;50299;49.524;8.536;2023-05-20T11:15:56;7.25;;;5.93;;
64052;SDS011;50299;49.524;8.536;2023-05-20T11:18:26;6.43;;;5.85;;
64052;SDS011;50299;49.524;8.536;2023-05-20T11:20:57;6.80;;;6.18;;
64052;SDS011;50299;49.524;8.536;2023-05-20T11:23:25;7.00;;;6.35;;
64052;SDS011;50299;49.524;8.536;2023-05-20T11:25:55;6.80;;;5.68;;
64052;SDS011;50299;49.524;8.536;2023-05-20T11:28:23;6.22;;;5.63;;
64052;SDS011;50299;49.524;8.536;2023-05-20T11:30:52;6.85;;;6.15;;
64052;SDS011;50299;49.524;8.536;2023-05-20T11:33:19;6.07;;;5.55;;
64052;SDS011;50299;49.524;8.536;2023-05-20T11:35:46;7.25;;;6.57;;
64052;SDS011;50299;49.524;8.536;2023-05-20T11:38:14;7.22;;;6.50;;
64052;SDS011;50299;49.524;8.536;2023-05-20T11:40:51;6.40;;;5.90;;
64052;SDS011;50299;49.524;8.536;2023-05-20T11:43:20;6.43;;;5.90;;
64052;SDS011;50299;49.524;8.536;2023-05-20T11:45:52;6.75;;;6.25;;
64052;SDS011;50299;49.524;8.536;2023-05-20T11:48:20;7.47;;;6.78;;
64052;SDS011;50299;49.524;8.536;2023-05-20T11:50:49;7.38;;;6.47;;
64052;SDS011;50299;49.524;8.536;2023-05-20T11:53:18;7.53;;;6.45;;
64052;SDS011;50299;49.524;8.536;2023-05-20T11:55:47;7.07;;;6.20;;
64052;SDS011;50299;49.524;8.536;2023-05-20T11:58:15;7.53;;;6.80;;
64052;SDS011;50299;49.524;8.536;2023-05-20T12:00:43;7.65;;;6.85;;
64052;SDS011;50299;49.524;8.536;2023-05-20T12:03:22;7.05;;;6.43;;
64052;SDS011;50299;49.524;8.536;2023-05-20T12:05:49;6.50;;;5.90;;
64052;SDS011;50299;49.524;8.536;2023-05-20T12:08:18;7.03;;;6.38;;
64052;SDS011;50299;49.524;8.536;2023-05-20T12:10:44;7.75;;;6.53;;
64052;SDS011;50299;49.524;8.536;2023-05-20T12:13:11;6.68;;;6.05;;
64052;SDS011;50299;49.524;8.536;2023-05-20T12:15:39;6.90;;;6.30;;
64052;SDS011;50299;49.524;8.536;2023-05-20T12:18:06;6.88;;;5.30;;
64052;SDS011;50299;49.524;8.536;2023-05-20T12:20:34;6.93;;;6.20;;
64052;SDS011;50299;49.524;8.536;2023-05-20T12:23:02;6.90;;;6.30;;
64052;SDS011;50299;49.524;8.536;2023-05-20T12:25:29;6.70;;;6.20;;
64052;SDS011;50299;49.524;8.536;2023-05-20T12:27:55;6.32;;;5.82;;
64052;SDS011;50299;49.524;8.536;2023-05-20T12:30:22;6.93;;;6.28;;
64052;SDS011;50299;49.524;8.536;2023-05-20T12:32:51;7.10;;;6.50;;
64052;SDS011;50299;49.524;8.536;2023-05-20T12:35:25;6.85;;;6.25;;
64052;SDS011;50299;49.524;8.536;2023-05-20T12:38:01;6.85;;;6.30;;
64052;SDS011;50299;49.524;8.536;2023-05-20T12:40:28;7.88;;;7.18;;
64052;SDS011;50299;49.524;8.536;2023-05-20T12:42:54;7.43;;;6.72;;
64052;SDS011;50299;49.524;8.536;2023-05-20T12:45:21;6.70;;;6.10;;
64052;SDS011;50299;49.524;8.536;2023-05-20T12:47:47;7.10;;;5.97;;
64052;SDS011;50299;49.524;8.536;2023-05-20T12:50:14;7.13;;;6.43;;
64052;SDS011;50299;49.524;8.536;2023-05-20T12:52:40;8.52;;;7.15;;
64052;SDS011;50299;49.524;8.536;2023-05-20T12:55:07;6.78;;;5.88;;
64052;SDS011;50299;49.524;8.536;2023-05-20T12:57:42;6.72;;;6.22;;
64052;SDS011;50299;49.524;8.536;2023-05-20T13:00:12;6.65;;;6.03;;
64052;SDS011;50299;49.524;8.536;2023-05-20T13:02:40;6.95;;;6.25;;
64052;SDS011;50299;49.524;8.536;2023-05-20T13:05:07;6.70;;;6.10;;
64052;SDS011;50299;49.524;8.536;2023-05-20T13:07:35;6.57;;;6.03;;
64052;SDS011;50299;49.524;8.536;2023-05-20T13:10:04;6.68;;;6.07;;
64052;SDS011;50299;49.524;8.536;2023-05-20T13:12:32;6.80;;;6.20;;
64052;SDS011;50299;49.524;8.536;2023-05-20T13:14:59;6.85;;;6.20;;
64052;SDS011;50299;49.524;8.536;2023-05-20T13:17:26;6.63;;;5.97;;
64052;SDS011;50299;49.524;8.536;2023-05-20T13:19:53;6.43;;;5.82;;
64052;SDS011;50299;49.524;8.536;2023-05-20T13:22:20;7.65;;;5.63;;
64052;SDS011;50299;49.524;8.536;2023-05-20T13:24:46;6.55;;;6.05;;
64052;SDS011;50299;49.524;8.536;2023-05-20T13:27:13;6.50;;;5.88;;
64052;SDS011;50299;49.524;8.536;2023-05-20T13:29:39;6.78;;;6.20;;
64052;SDS011;50299;49.524;8.536;2023-05-20T13:32:07;6.30;;;5.80;;
64052;SDS011;50299;49.524;8.536;2023-05-20T13:34:33;6.40;;;5.65;;
64052;SDS011;50299;49.524;8.536;2023-05-20T13:37:00;6.53;;;5.93;;
64052;SDS011;50299;49.524;8.536;2023-05-20T13:39:26;6.47;;;5.88;;
64052;SDS011;50299;49.524;8.536;2023-05-20T13:41:53;6.45;;;5.93;;
64052;SDS011;50299;49.524;8.536;2023-05-20T13:44:20;6.53;;;5.95;;
64052;SDS011;50299;49.524;8.536;2023-05-20T13:46:46;6.38;;;5.82;;
64052;SDS011;50299;49.524;8.536;2023-05-20T13:49:13;7.35;;;6.78;;
64052;SDS011;50299;49.524;8.536;2023-05-20T13:51:40;6.75;;;6.15;;
64052;SDS011;50299;49.524;8.536;2023-05-20T13:54:12;7.05;;;6.35;;
64052;SDS011;50299;49.524;8.536;2023-05-20T13:56:38;6.72;;;6.10;;
64052;SDS011;50299;49.524;8.536;2023-05-20T13:59:05;6.95;;;6.35;;
64052;SDS011;50299;49.524;8.536;2023-05-20T14:01:34;6.65;;;6.10;;
64052;SDS011;50299;49.524;8.536;2023-05-20T14:04:04;8.70;;;6.60;;
64052;SDS011;50299;49.524;8.536;2023-05-20T14:06:30;7.10;;;6.28;;
64052;SDS011;50299;49.524;8.536;2023-05-20T14:08:58;7.40;;;6.78;;
64052;SDS011;50299;49.524;8.536;2023-05-20T14:11:24;7.03;;;6.32;;
64052;SDS011;50299;49.524;8.536;2023-05-20T14:13:53;6.60;;;6.00;;
64052;SDS011;50299;49.524;8.536;2023-05-20T14:16:20;6.72;;;6.13;;
64052;SDS011;50299;49.524;8.536;2023-05-20T14:18:46;7.70;;;6.90;;
64052;SDS011;50299;49.524;8.536;2023-05-20T14:21:13;7.53;;;6.50;;
64052;SDS011;50299;49.524;8.536;2023-05-20T14:23:39;7.22;;;6.55;;
64052;SDS011;50299;49.524;8.536;2023-05-20T14:26:09;7.20;;;6.50;;
64052;SDS011;50299;49.524;8.536;2023-05-20T14:28:36;7.13;;;6.15;;
64052;SDS011;50299;49.524;8.536;2023-05-20T14:31:03;6.97;;;6.32;;
64052;SDS011;50299;49.524;8.536;2023-05-20T14:33:33;6.60;;;6.10;;
64052;SDS011;50299;49.524;8.536;2023-05-20T14:35:59;7.47;;;6.78;;
64052;SDS011;50299;49.524;8.536;2023-05-20T14:38:27;7.10;;;6.40;;
64052;SDS011;50299;49.524;8.536;2023-05-20T14:40:53;8.40;;;6.60;;
64052;SDS011;50299;49.524;8.536;2023-05-20T14:43:20;6.93;;;6.20;;
64052;SDS011;50299;49.524;8.536;2023-05-20T14:45:47;7.07;;;6.47;;
64052;SDS011;50299;49.524;8.536;2023-05-20T14:48:14;7.72;;;7.13;;
64052;SDS011;50299;49.524;8.536;2023-05-20T14:50:41;6.85;;;6.25;;
64052;SDS011;50299;49.524;8.536;2023-05-20T14:53:07;6.97;;;6.38;;
64052;SDS011;50299;49.524;8.536;2023-05-20T14:55:34;7.43;;;6.65;;
64052;SDS011;50299;49.524;8.536;2023-05-20T14:58:00;7.55;;;6.88;;
64052;SDS011;50299;49.524;8.536;2023-05-20T15:00:27;8.70;;;7.15;;
64052;SDS011;50299;49.524;8.536;2023-05-20T15:02:53;8.45;;;7.40;;
64052;SDS011;50299;49.524;8.536;2023-05-20T15:05:20;7.85;;;7.05;;
64052;SDS011;50299;49.524;8.536;2023-05-20T15:07:47;8.35;;;7.50;;
64052;SDS011;50299;49.524;8.536;2023-05-20T15:10:13;8.18;;;7.38;;